createdAt,value
2023-12-11T00:01:44.861Z,9.18
2023-12-11T00:06:46.396Z,8.75
2023-12-11T00:11:47.889Z,8.77
2023-12-11T00:16:49.418Z,9.07
2023-12-11T00:21:50.961Z,8.52
2023-12-11T00:26:52.526Z,9.10
2023-12-11T00:31:54.052Z,13.88
2023-12-11T00:36:55.587Z,12.52
2023-12-11T00:41:57.589Z,9.52
2023-12-11T00:46:59.106Z,8.13
2023-12-11T00:52:00.613Z,7.72
2023-12-11T00:57:02.132Z,9.55
2023-12-11T01:02:03.840Z,8.20
2023-12-11T01:07:05.444Z,5.75
2023-12-11T01:12:07.241Z,4.88
2023-12-11T01:17:36.660Z,7.95
2023-12-11T01:22:30.214Z,9.95
2023-12-11T01:27:32.307Z,9.95
2023-12-11T01:32:34.221Z,11.20
2023-12-11T01:37:35.919Z,12.30
2023-12-11T01:42:37.455Z,8.60
2023-12-11T01:47:39.440Z,8.63
2023-12-11T01:52:41.083Z,8.60
2023-12-11T01:57:42.655Z,12.93
2023-12-11T02:02:44.608Z,10.65
2023-12-11T02:07:46.137Z,10.75
2023-12-11T02:12:47.682Z,15.90
2023-12-11T02:17:49.250Z,15.55
2023-12-11T02:22:51.510Z,16.38
2023-12-11T02:27:53.012Z,19.20
2023-12-11T02:32:54.538Z,19.00
2023-12-11T02:37:56.112Z,20.50
2023-12-11T02:42:57.682Z,18.35
2023-12-11T02:47:59.293Z,19.45
2023-12-11T02:53:03.108Z,16.17
2023-12-11T02:58:05.104Z,18.25
2023-12-11T03:03:09.275Z,19.20
2023-12-11T03:08:10.866Z,22.42
2023-12-11T03:13:12.436Z,14.07
2023-12-11T03:18:14.027Z,16.60
2023-12-11T03:23:15.563Z,19.55
2023-12-11T03:28:17.174Z,23.70
2023-12-11T03:33:18.755Z,20.30
2023-12-11T03:38:20.280Z,25.80
2023-12-11T03:43:21.809Z,21.13
2023-12-11T03:48:23.455Z,21.30
2023-12-11T03:53:25.018Z,20.95
2023-12-11T03:58:26.541Z,24.25
2023-12-11T04:03:28.100Z,22.88
2023-12-11T04:08:29.838Z,25.70
2023-12-11T04:13:31.348Z,18.33
2023-12-11T04:18:34.006Z,26.30
2023-12-11T04:23:35.611Z,24.38
2023-12-11T04:28:37.093Z,28.40
2023-12-11T04:33:38.926Z,36.60
2023-12-11T04:38:40.847Z,28.65
2023-12-11T04:43:42.326Z,28.52
2023-12-11T04:48:44.002Z,39.28
2023-12-11T04:53:45.538Z,27.67
2023-12-11T04:58:47.032Z,36.92
2023-12-11T05:03:48.530Z,34.58
2023-12-11T05:08:50.105Z,34.95
2023-12-11T05:13:51.624Z,36.92
2023-12-11T05:18:53.243Z,34.00
2023-12-11T05:23:56.388Z,34.78
2023-12-11T05:28:57.896Z,37.55
2023-12-11T05:33:59.661Z,34.10
2023-12-11T05:39:01.261Z,41.83
2023-12-11T05:44:02.773Z,47.25
2023-12-11T05:49:04.367Z,43.95
2023-12-11T05:54:05.941Z,42.70
2023-12-11T05:59:07.423Z,36.83
2023-12-11T06:04:08.991Z,40.15
2023-12-11T06:09:10.520Z,52.70
2023-12-11T06:14:12.056Z,49.83
2023-12-11T06:19:13.711Z,37.55
2023-12-11T06:24:15.284Z,35.80
2023-12-11T06:29:16.968Z,28.88
2023-12-11T06:34:18.527Z,35.85
2023-12-11T06:39:20.008Z,43.70
2023-12-11T06:44:21.890Z,42.10
2023-12-11T06:49:23.576Z,37.55
2023-12-11T06:54:25.187Z,36.75
2023-12-11T06:59:26.672Z,38.03
2023-12-11T07:04:28.273Z,38.70
2023-12-11T07:09:29.904Z,40.03
2023-12-11T07:14:33.868Z,36.45
2023-12-11T07:19:35.456Z,30.83
2023-12-11T07:24:37.038Z,35.78
2023-12-11T07:29:38.594Z,28.23
2023-12-11T07:34:40.237Z,26.73
2023-12-11T07:39:41.875Z,30.55
2023-12-11T07:44:43.454Z,30.27
2023-12-11T07:49:45.322Z,27.90
2023-12-11T07:54:47.001Z,26.70
2023-12-11T07:59:48.558Z,29.40
2023-12-11T08:04:50.114Z,27.13
2023-12-11T08:09:51.737Z,27.42
2023-12-11T08:14:53.343Z,26.58
2023-12-11T08:19:56.259Z,25.25
2023-12-11T08:24:57.865Z,27.35
2023-12-11T08:29:59.394Z,27.45
2023-12-11T08:35:00.991Z,26.23
2023-12-11T08:40:03.522Z,27.95
2023-12-11T08:45:05.787Z,32.60
2023-12-11T08:50:09.215Z,25.48
2023-12-11T08:55:11.327Z,20.70
2023-12-11T09:00:13.661Z,16.77
2023-12-11T09:05:15.754Z,18.80
2023-12-11T09:10:17.428Z,20.85
2023-12-11T09:15:19.005Z,21.65
2023-12-11T09:20:20.595Z,29.73
2023-12-11T09:25:22.338Z,26.00
2023-12-11T09:30:24.213Z,29.23
2023-12-11T09:35:26.068Z,27.65
2023-12-11T09:40:27.687Z,27.30
2023-12-11T09:45:29.978Z,33.70
2023-12-11T09:50:31.912Z,27.60
2023-12-11T09:55:33.463Z,26.02
2023-12-11T10:00:36.787Z,26.77
2023-12-11T10:05:38.509Z,19.65
2023-12-11T10:10:40.404Z,32.42
2023-12-11T10:15:42.003Z,30.73
2023-12-11T10:20:44.167Z,29.85
2023-12-11T10:25:47.961Z,20.02
2023-12-11T10:30:55.533Z,29.17
2023-12-11T10:36:26.590Z,24.55
2023-12-11T10:41:28.121Z,26.80
2023-12-11T10:46:30.493Z,19.13
2023-12-11T10:51:32.488Z,17.67
2023-12-11T10:56:34.277Z,16.15
2023-12-11T11:01:36.730Z,19.27
2023-12-11T11:06:43.732Z,21.17
2023-12-11T11:11:53.482Z,18.10
2023-12-11T11:16:56.881Z,21.38
2023-12-11T11:22:27.470Z,22.83
2023-12-11T11:27:44.072Z,20.88
2023-12-11T11:32:53.594Z,19.67
2023-12-11T11:37:55.149Z,18.65
2023-12-11T11:42:56.686Z,15.52
2023-12-11T11:47:58.485Z,40.60
2023-12-11T11:53:07.349Z,32.97
2023-12-11T11:58:15.938Z,11.35
2023-12-11T12:03:17.454Z,13.07
2023-12-11T12:08:19.027Z,10.65
2023-12-11T12:13:20.693Z,9.18
2023-12-11T12:18:22.243Z,11.98
2023-12-11T12:23:23.804Z,10.07
2023-12-11T12:28:25.690Z,14.52
2023-12-11T12:33:27.690Z,12.98
2023-12-11T12:38:29.477Z,22.88
2023-12-11T12:43:31.089Z,17.67
2023-12-11T12:48:32.678Z,15.90
2023-12-11T12:53:34.376Z,11.43
2023-12-11T12:58:35.972Z,10.85
2023-12-11T13:03:37.614Z,11.02
2023-12-11T13:08:45.131Z,11.07
2023-12-11T13:13:56.584Z,8.88
2023-12-11T13:18:58.287Z,9.02
2023-12-11T13:24:01.261Z,6.57
2023-12-11T13:29:03.016Z,5.53
2023-12-11T13:34:04.622Z,7.60
2023-12-11T13:39:06.137Z,9.48
2023-12-11T13:44:07.610Z,8.55
2023-12-11T13:49:09.143Z,7.10
2023-12-11T13:54:10.657Z,7.30
2023-12-11T13:59:12.169Z,9.45
2023-12-11T14:04:14.061Z,9.57
2023-12-11T14:09:15.608Z,8.52
2023-12-11T14:14:17.168Z,9.55
2023-12-11T14:19:18.780Z,6.07
2023-12-11T14:24:20.318Z,7.47
2023-12-11T14:29:24.436Z,8.73
2023-12-11T14:34:26.049Z,6.88
2023-12-11T14:39:27.601Z,9.35
2023-12-11T14:44:29.063Z,9.43
2023-12-11T14:49:30.760Z,10.55
2023-12-11T14:54:32.286Z,9.05
2023-12-11T14:59:33.768Z,12.93
2023-12-11T15:04:35.281Z,15.18
2023-12-11T15:09:36.764Z,14.70
2023-12-11T15:14:38.228Z,13.10
2023-12-11T15:19:39.807Z,16.80
2023-12-11T15:24:41.402Z,32.90
2023-12-11T15:29:42.939Z,17.17
2023-12-11T15:34:44.564Z,14.98
2023-12-11T15:39:46.138Z,19.48
2023-12-11T15:44:47.616Z,18.98
2023-12-11T15:49:49.521Z,24.98
2023-12-11T15:54:51.088Z,25.45
2023-12-11T15:59:52.535Z,19.55
2023-12-11T16:04:54.023Z,14.90
2023-12-11T16:09:55.643Z,18.20
2023-12-11T16:14:57.083Z,12.80
2023-12-11T16:19:58.508Z,8.85
2023-12-11T16:24:59.943Z,15.25
2023-12-11T16:30:01.527Z,18.17
2023-12-11T16:35:03.148Z,12.20
2023-12-11T16:40:05.792Z,14.63
2023-12-11T16:45:09.512Z,16.25
2023-12-11T16:50:11.254Z,15.73
2023-12-11T16:55:12.884Z,18.00
2023-12-11T17:00:15.152Z,17.27
2023-12-11T17:05:16.866Z,14.52
2023-12-11T17:10:18.486Z,18.88
2023-12-11T17:15:20.000Z,15.88
2023-12-11T17:20:21.480Z,16.27
2023-12-11T17:25:23.199Z,13.57
2023-12-11T17:30:24.678Z,15.20
2023-12-11T17:35:26.233Z,15.82
2023-12-11T17:40:27.710Z,17.00
2023-12-11T17:45:29.263Z,20.00
2023-12-11T17:50:31.036Z,15.65
2023-12-11T17:55:32.522Z,18.88
2023-12-11T18:00:34.003Z,15.48
2023-12-11T18:05:35.483Z,15.75
2023-12-11T18:10:37.110Z,12.77
2023-12-11T18:15:38.608Z,11.45
2023-12-11T18:20:40.058Z,13.50
2023-12-11T18:25:41.624Z,30.23
2023-12-11T18:30:43.353Z,16.85
2023-12-11T18:35:44.886Z,18.92
2023-12-11T18:40:46.462Z,14.98
2023-12-11T18:45:47.948Z,20.50
2023-12-11T18:50:49.396Z,25.50
2023-12-11T19:01:11.021Z,21.65
2023-12-11T19:06:12.611Z,30.02
2023-12-11T19:11:15.302Z,28.98
2023-12-11T19:16:16.787Z,15.05
2023-12-11T19:21:18.285Z,12.90
2023-12-11T19:26:19.787Z,19.70
2023-12-11T19:31:21.412Z,15.73
2023-12-11T19:36:23.198Z,17.65
2023-12-11T19:41:24.753Z,14.85
2023-12-11T19:46:26.380Z,13.18
2023-12-11T19:51:27.877Z,13.60
2023-12-11T19:56:29.345Z,22.88
2023-12-11T20:01:32.086Z,15.73
2023-12-11T20:06:33.637Z,15.65
2023-12-11T20:11:35.105Z,11.18
2023-12-11T20:16:36.609Z,14.05
2023-12-11T20:21:39.343Z,14.48
2023-12-11T20:26:42.121Z,14.88
2023-12-11T20:31:43.631Z,8.48
2023-12-11T20:36:45.135Z,18.23
2023-12-11T20:41:46.780Z,12.35
2023-12-11T20:46:48.292Z,10.27
2023-12-11T20:51:49.795Z,11.63
2023-12-11T20:56:51.256Z,11.40
2023-12-11T21:01:52.836Z,8.98
2023-12-11T21:06:54.382Z,12.63
2023-12-11T21:11:55.843Z,22.38
2023-12-11T21:16:57.305Z,27.40
2023-12-11T21:21:58.750Z,15.55
2023-12-11T21:27:00.307Z,40.60
2023-12-11T21:32:01.892Z,30.25
2023-12-11T21:37:03.475Z,20.50
2023-12-11T21:42:05.256Z,15.70
2023-12-11T21:47:06.969Z,13.10
2023-12-11T21:52:08.512Z,21.98
2023-12-11T21:57:10.019Z,16.88
2023-12-11T22:02:11.568Z,12.35
2023-12-11T22:07:14.854Z,15.43
2023-12-11T22:12:17.356Z,14.13
2023-12-11T22:17:18.771Z,12.48
2023-12-11T22:22:20.230Z,13.82
2023-12-11T22:27:21.714Z,11.27
2023-12-11T22:32:23.185Z,11.82
2023-12-11T22:37:25.230Z,14.68
2023-12-11T22:42:26.765Z,11.60
2023-12-11T22:47:28.439Z,9.30
2023-12-11T22:52:30.026Z,8.48
2023-12-11T22:57:31.671Z,7.40
2023-12-11T23:02:33.270Z,6.43
2023-12-11T23:07:35.262Z,7.35
2023-12-11T23:12:36.931Z,11.15
2023-12-11T23:17:38.483Z,32.90
2023-12-11T23:22:39.967Z,31.77
2023-12-11T23:27:41.543Z,25.48
2023-12-11T23:32:43.197Z,20.90
2023-12-11T23:37:44.791Z,20.30
2023-12-11T23:42:46.231Z,15.60
2023-12-11T23:47:47.808Z,20.73
2023-12-11T23:52:49.512Z,21.98
2023-12-11T23:57:50.972Z,12.63
